Terminal Aerodrome Forecast
Issued by NWS

Home | Current Version | Previous Version | Text Only | Print | Product List | Glossary Off
Versions: 1 2 3 4 5 6 7 8 9 10 11 12 13 14 15 16 17 18 19 20 21 22 23 24 25 26 27 28 29

000
FTUS45 KGGW 101720 AAA
TAFOLF
TAF AMD
KOLF 101720Z 1017/1118 33011KT P6SM BKN018
     FM102100 35010KT P6SM BKN015
     FM110000 01006KT P6SM BKN020
     FM110600 08004KT P6SM OVC015
     FM111200 09006KT P6SM VCSH SCT003 OVC015=

USA.gov is the U.S. government's official web portal to all federal, state and local government web resources and services.